sensor_id;sensor_type;location;lat;lon;timestamp;P1;durP1;ratioP1;P2;durP2;ratioP2
80782;SDS011;70172;-35.368;149.084;2023-05-18T00:01:34;0.98;;;0.63;;
80782;SDS011;70172;-35.368;149.084;2023-05-18T00:04:05;0.50;;;0.50;;
80782;SDS011;70172;-35.368;149.084;2023-05-18T00:06:32;0.68;;;0.40;;
80782;SDS011;70172;-35.368;149.084;2023-05-18T00:08:59;1.30;;;0.60;;
80782;SDS011;70172;-35.368;149.084;2023-05-18T00:11:26;1.60;;;0.60;;
80782;SDS011;70172;-35.368;149.084;2023-05-18T00:13:53;0.50;;;0.43;;
80782;SDS011;70172;-35.368;149.084;2023-05-18T00:16:20;2.67;;;0.60;;
80782;SDS011;70172;-35.368;149.084;2023-05-18T00:18:47;0.52;;;0.38;;
80782;SDS011;70172;-35.368;149.084;2023-05-18T00:21:18;0.85;;;0.70;;
80782;SDS011;70172;-35.368;149.084;2023-05-18T00:23:46;1.33;;;0.60;;
80782;SDS011;70172;-35.368;149.084;2023-05-18T00:26:14;0.85;;;0.55;;
80782;SDS011;70172;-35.368;149.084;2023-05-18T00:29:21;3.13;;;0.63;;
80782;SDS011;70172;-35.368;149.084;2023-05-18T00:31:48;2.30;;;0.50;;
80782;SDS011;70172;-35.368;149.084;2023-05-18T00:34:15;1.38;;;1.13;;
80782;SDS011;70172;-35.368;149.084;2023-05-18T00:36:42;0.95;;;0.43;;
80782;SDS011;70172;-35.368;149.084;2023-05-18T00:39:09;2.20;;;1.38;;
80782;SDS011;70172;-35.368;149.084;2023-05-18T00:41:36;1.10;;;0.45;;
80782;SDS011;70172;-35.368;149.084;2023-05-18T00:44:04;2.03;;;0.45;;
80782;SDS011;70172;-35.368;149.084;2023-05-18T00:46:31;3.28;;;1.13;;
80782;SDS011;70172;-35.368;149.084;2023-05-18T00:48:58;0.93;;;0.45;;
80782;SDS011;70172;-35.368;149.084;2023-05-18T00:51:28;0.95;;;0.50;;
80782;SDS011;70172;-35.368;149.084;2023-05-18T00:53:58;1.83;;;0.50;;
80782;SDS011;70172;-35.368;149.084;2023-05-18T00:56:25;0.47;;;0.47;;
80782;SDS011;70172;-35.368;149.084;2023-05-18T00:58:52;1.85;;;0.60;;
80782;SDS011;70172;-35.368;149.084;2023-05-18T01:01:29;0.50;;;0.40;;
80782;SDS011;70172;-35.368;149.084;2023-05-18T01:03:59;0.50;;;0.40;;
80782;SDS011;70172;-35.368;149.084;2023-05-18T01:07:05;1.67;;;0.40;;
80782;SDS011;70172;-35.368;149.084;2023-05-18T01:09:32;0.70;;;0.35;;
80782;SDS011;70172;-35.368;149.084;2023-05-18T01:12:06;2.78;;;0.52;;
80782;SDS011;70172;-35.368;149.084;2023-05-18T01:14:48;2.77;;;0.80;;
80782;SDS011;70172;-35.368;149.084;2023-05-18T01:20:14;0.73;;;0.47;;
80782;SDS011;70172;-35.368;149.084;2023-05-18T01:28:07;1.75;;;0.52;;
80782;SDS011;70172;-35.368;149.084;2023-05-18T01:30:37;2.10;;;0.40;;
80782;SDS011;70172;-35.368;149.084;2023-05-18T01:33:09;0.55;;;0.50;;
80782;SDS011;70172;-35.368;149.084;2023-05-18T01:35:36;1.38;;;0.35;;
80782;SDS011;70172;-35.368;149.084;2023-05-18T01:40:35;0.70;;;0.50;;
80782;SDS011;70172;-35.368;149.084;2023-05-18T01:43:09;1.20;;;0.40;;
80782;SDS011;70172;-35.368;149.084;2023-05-18T01:45:38;0.50;;;0.40;;
80782;SDS011;70172;-35.368;149.084;2023-05-18T01:48:05;0.40;;;0.32;;
80782;SDS011;70172;-35.368;149.084;2023-05-18T01:50:34;1.17;;;0.50;;
80782;SDS011;70172;-35.368;149.084;2023-05-18T01:53:11;0.75;;;0.40;;
80782;SDS011;70172;-35.368;149.084;2023-05-18T01:55:38;1.85;;;0.50;;
80782;SDS011;70172;-35.368;149.084;2023-05-18T01:58:06;1.55;;;0.50;;
80782;SDS011;70172;-35.368;149.084;2023-05-18T02:00:33;1.08;;;0.65;;
80782;SDS011;70172;-35.368;149.084;2023-05-18T02:03:01;0.63;;;0.40;;
80782;SDS011;70172;-35.368;149.084;2023-05-18T02:05:28;0.20;;;0.20;;
80782;SDS011;70172;-35.368;149.084;2023-05-18T02:07:55;0.77;;;0.20;;
80782;SDS011;70172;-35.368;149.084;2023-05-18T02:10:22;0.55;;;0.40;;
80782;SDS011;70172;-35.368;149.084;2023-05-18T02:13:23;1.30;;;0.57;;
80782;SDS011;70172;-35.368;149.084;2023-05-18T02:15:50;0.57;;;0.35;;
80782;SDS011;70172;-35.368;149.084;2023-05-18T02:18:17;0.47;;;0.38;;
80782;SDS011;70172;-35.368;149.084;2023-05-18T02:20:46;0.20;;;0.20;;
80782;SDS011;70172;-35.368;149.084;2023-05-18T02:23:52;0.43;;;0.30;;
80782;SDS011;70172;-35.368;149.084;2023-05-18T02:26:22;0.65;;;0.30;;
80782;SDS011;70172;-35.368;149.084;2023-05-18T02:28:49;1.10;;;0.30;;
80782;SDS011;70172;-35.368;149.084;2023-05-18T02:31:30;0.47;;;0.45;;
80782;SDS011;70172;-35.368;149.084;2023-05-18T02:34:36;0.60;;;0.30;;
80782;SDS011;70172;-35.368;149.084;2023-05-18T02:37:06;0.40;;;0.30;;
80782;SDS011;70172;-35.368;149.084;2023-05-18T02:39:33;0.82;;;0.40;;
80782;SDS011;70172;-35.368;149.084;2023-05-18T02:42:00;0.38;;;0.30;;
80782;SDS011;70172;-35.368;149.084;2023-05-18T02:44:27;0.50;;;0.20;;
80782;SDS011;70172;-35.368;149.084;2023-05-18T02:46:54;0.32;;;0.30;;
80782;SDS011;70172;-35.368;149.084;2023-05-18T02:49:21;0.70;;;0.35;;
80782;SDS011;70172;-35.368;149.084;2023-05-18T02:51:48;0.90;;;0.30;;
80782;SDS011;70172;-35.368;149.084;2023-05-18T02:54:15;1.48;;;0.75;;
80782;SDS011;70172;-35.368;149.084;2023-05-18T02:56:42;0.20;;;0.20;;
80782;SDS011;70172;-35.368;149.084;2023-05-18T02:59:09;0.30;;;0.20;;
80782;SDS011;70172;-35.368;149.084;2023-05-18T03:02:00;0.45;;;0.30;;
80782;SDS011;70172;-35.368;149.084;2023-05-18T03:04:27;0.52;;;0.30;;
80782;SDS011;70172;-35.368;149.084;2023-05-18T03:06:54;0.65;;;0.22;;
80782;SDS011;70172;-35.368;149.084;2023-05-18T03:10:04;0.43;;;0.32;;
80782;SDS011;70172;-35.368;149.084;2023-05-18T03:13:10;0.20;;;0.20;;
80782;SDS011;70172;-35.368;149.084;2023-05-18T03:15:37;0.38;;;0.20;;
80782;SDS011;70172;-35.368;149.084;2023-05-18T03:18:05;0.20;;;0.20;;
80782;SDS011;70172;-35.368;149.084;2023-05-18T03:20:32;0.28;;;0.28;;
80782;SDS011;70172;-35.368;149.084;2023-05-18T03:23:32;2.33;;;0.43;;
80782;SDS011;70172;-35.368;149.084;2023-05-18T03:25:59;1.17;;;0.35;;
80782;SDS011;70172;-35.368;149.084;2023-05-18T03:28:31;0.40;;;0.30;;
80782;SDS011;70172;-35.368;149.084;2023-05-18T03:30:58;1.95;;;0.43;;
80782;SDS011;70172;-35.368;149.084;2023-05-18T03:33:25;0.30;;;0.20;;
80782;SDS011;70172;-35.368;149.084;2023-05-18T03:35:52;0.30;;;0.30;;
80782;SDS011;70172;-35.368;149.084;2023-05-18T03:38:59;0.22;;;0.22;;
80782;SDS011;70172;-35.368;149.084;2023-05-18T03:41:26;0.40;;;0.20;;
80782;SDS011;70172;-35.368;149.084;2023-05-18T03:43:54;0.85;;;0.10;;
80782;SDS011;70172;-35.368;149.084;2023-05-18T03:46:21;0.28;;;0.20;;
80782;SDS011;70172;-35.368;149.084;2023-05-18T03:48:48;1.10;;;0.40;;
80782;SDS011;70172;-35.368;149.084;2023-05-18T03:51:15;0.45;;;0.25;;
80782;SDS011;70172;-35.368;149.084;2023-05-18T03:53:42;0.47;;;0.22;;
80782;SDS011;70172;-35.368;149.084;2023-05-18T03:56:09;0.45;;;0.30;;
80782;SDS011;70172;-35.368;149.084;2023-05-18T03:58:37;0.28;;;0.25;;
80782;SDS011;70172;-35.368;149.084;2023-05-18T04:01:06;1.40;;;0.30;;
80782;SDS011;70172;-35.368;149.084;2023-05-18T04:03:33;0.40;;;0.20;;
80782;SDS011;70172;-35.368;149.084;2023-05-18T04:06:00;0.30;;;0.30;;
80782;SDS011;70172;-35.368;149.084;2023-05-18T04:08:40;0.20;;;0.20;;
80782;SDS011;70172;-35.368;149.084;2023-05-18T04:11:07;0.22;;;0.20;;
80782;SDS011;70172;-35.368;149.084;2023-05-18T04:13:36;0.63;;;0.57;;
80782;SDS011;70172;-35.368;149.084;2023-05-18T04:16:03;0.77;;;0.28;;
80782;SDS011;70172;-35.368;149.084;2023-05-18T04:18:31;0.70;;;0.38;;
80782;SDS011;70172;-35.368;149.084;2023-05-18T04:21:38;0.30;;;0.30;;
80782;SDS011;70172;-35.368;149.084;2023-05-18T04:24:08;1.20;;;0.30;;
80782;SDS011;70172;-35.368;149.084;2023-05-18T04:26:39;0.20;;;0.20;;
80782;SDS011;70172;-35.368;149.084;2023-05-18T04:29:07;0.52;;;0.30;;
80782;SDS011;70172;-35.368;149.084;2023-05-18T04:32:13;0.10;;;0.10;;
80782;SDS011;70172;-35.368;149.084;2023-05-18T04:34:42;0.22;;;0.22;;
80782;SDS011;70172;-35.368;149.084;2023-05-18T04:37:13;0.30;;;0.30;;
80782;SDS011;70172;-35.368;149.084;2023-05-18T04:39:42;0.20;;;0.20;;
80782;SDS011;70172;-35.368;149.084;2023-05-18T04:42:09;0.30;;;0.30;;
80782;SDS011;70172;-35.368;149.084;2023-05-18T04:44:38;0.63;;;0.30;;
80782;SDS011;70172;-35.368;149.084;2023-05-18T04:47:05;0.45;;;0.30;;
80782;SDS011;70172;-35.368;149.084;2023-05-18T04:49:32;0.40;;;0.30;;
80782;SDS011;70172;-35.368;149.084;2023-05-18T04:51:59;0.65;;;0.30;;
80782;SDS011;70172;-35.368;149.084;2023-05-18T04:54:27;0.40;;;0.30;;
80782;SDS011;70172;-35.368;149.084;2023-05-18T04:56:57;0.20;;;0.20;;
80782;SDS011;70172;-35.368;149.084;2023-05-18T04:59:26;0.47;;;0.43;;
80782;SDS011;70172;-35.368;149.084;2023-05-18T05:01:54;0.32;;;0.28;;
80782;SDS011;70172;-35.368;149.084;2023-05-18T05:04:21;0.22;;;0.20;;
80782;SDS011;70172;-35.368;149.084;2023-05-18T05:06:48;0.35;;;0.22;;
80782;SDS011;70172;-35.368;149.084;2023-05-18T05:09:15;0.63;;;0.20;;
80782;SDS011;70172;-35.368;149.084;2023-05-18T05:11:42;0.75;;;0.35;;
80782;SDS011;70172;-35.368;149.084;2023-05-18T05:14:09;0.70;;;0.30;;
80782;SDS011;70172;-35.368;149.084;2023-05-18T05:16:36;0.22;;;0.22;;
80782;SDS011;70172;-35.368;149.084;2023-05-18T05:19:04;0.13;;;0.13;;
80782;SDS011;70172;-35.368;149.084;2023-05-18T05:21:31;1.35;;;0.20;;
80782;SDS011;70172;-35.368;149.084;2023-05-18T05:23:58;0.25;;;0.25;;
80782;SDS011;70172;-35.368;149.084;2023-05-18T05:26:29;0.20;;;0.20;;
80782;SDS011;70172;-35.368;149.084;2023-05-18T05:28:56;0.40;;;0.40;;
80782;SDS011;70172;-35.368;149.084;2023-05-18T05:31:23;0.22;;;0.22;;
80782;SDS011;70172;-35.368;149.084;2023-05-18T05:34:24;0.43;;;0.20;;
80782;SDS011;70172;-35.368;149.084;2023-05-18T05:36:51;0.20;;;0.20;;
80782;SDS011;70172;-35.368;149.084;2023-05-18T05:39:18;1.02;;;0.20;;
80782;SDS011;70172;-35.368;149.084;2023-05-18T05:41:45;0.10;;;0.10;;
80782;SDS011;70172;-35.368;149.084;2023-05-18T05:44:12;0.40;;;0.30;;
80782;SDS011;70172;-35.368;149.084;2023-05-18T05:46:39;0.25;;;0.25;;
80782;SDS011;70172;-35.368;149.084;2023-05-18T05:49:06;0.20;;;0.20;;
80782;SDS011;70172;-35.368;149.084;2023-05-18T05:51:32;0.68;;;0.30;;
80782;SDS011;70172;-35.368;149.084;2023-05-18T05:53:59;0.60;;;0.20;;
80782;SDS011;70172;-35.368;149.084;2023-05-18T05:56:26;0.38;;;0.20;;
80782;SDS011;70172;-35.368;149.084;2023-05-18T05:58:53;0.75;;;0.20;;
80782;SDS011;70172;-35.368;149.084;2023-05-18T06:01:20;0.30;;;0.20;;
80782;SDS011;70172;-35.368;149.084;2023-05-18T06:03:47;0.20;;;0.20;;
80782;SDS011;70172;-35.368;149.084;2023-05-18T06:06:14;0.30;;;0.30;;
80782;SDS011;70172;-35.368;149.084;2023-05-18T06:08:41;0.47;;;0.30;;
80782;SDS011;70172;-35.368;149.084;2023-05-18T06:11:08;0.80;;;0.43;;
80782;SDS011;70172;-35.368;149.084;2023-05-18T06:13:36;0.20;;;0.20;;
80782;SDS011;70172;-35.368;149.084;2023-05-18T06:16:03;0.47;;;0.32;;
80782;SDS011;70172;-35.368;149.084;2023-05-18T06:18:30;0.20;;;0.20;;
80782;SDS011;70172;-35.368;149.084;2023-05-18T06:20:57;0.77;;;0.30;;
80782;SDS011;70172;-35.368;149.084;2023-05-18T06:23:24;0.43;;;0.13;;
80782;SDS011;70172;-35.368;149.084;2023-05-18T06:25:51;0.25;;;0.25;;
80782;SDS011;70172;-35.368;149.084;2023-05-18T06:28:18;1.08;;;0.25;;
80782;SDS011;70172;-35.368;149.084;2023-05-18T06:30:45;1.25;;;0.40;;
80782;SDS011;70172;-35.368;149.084;2023-05-18T06:33:12;0.22;;;0.22;;
80782;SDS011;70172;-35.368;149.084;2023-05-18T06:35:39;0.65;;;0.20;;
80782;SDS011;70172;-35.368;149.084;2023-05-18T06:38:06;0.20;;;0.20;;
80782;SDS011;70172;-35.368;149.084;2023-05-18T06:40:52;0.38;;;0.20;;
80782;SDS011;70172;-35.368;149.084;2023-05-18T06:43:20;0.57;;;0.30;;
80782;SDS011;70172;-35.368;149.084;2023-05-18T06:45:47;0.35;;;0.30;;
80782;SDS011;70172;-35.368;149.084;2023-05-18T06:48:14;0.28;;;0.28;;
80782;SDS011;70172;-35.368;149.084;2023-05-18T06:50:41;0.82;;;0.30;;
80782;SDS011;70172;-35.368;149.084;2023-05-18T06:53:08;0.28;;;0.20;;
80782;SDS011;70172;-35.368;149.084;2023-05-18T06:55:35;0.20;;;0.20;;
80782;SDS011;70172;-35.368;149.084;2023-05-18T06:58:35;1.10;;;0.30;;
80782;SDS011;70172;-35.368;149.084;2023-05-18T07:01:03;0.20;;;0.20;;
80782;SDS011;70172;-35.368;149.084;2023-05-18T07:03:30;1.85;;;0.43;;
80782;SDS011;70172;-35.368;149.084;2023-05-18T07:05:57;0.43;;;0.20;;
80782;SDS011;70172;-35.368;149.084;2023-05-18T07:08:24;0.32;;;0.30;;
80782;SDS011;70172;-35.368;149.084;2023-05-18T07:10:51;0.63;;;0.35;;
80782;SDS011;70172;-35.368;149.084;2023-05-18T07:13:19;0.30;;;0.30;;
80782;SDS011;70172;-35.368;149.084;2023-05-18T07:15:46;0.63;;;0.40;;
80782;SDS011;70172;-35.368;149.084;2023-05-18T07:18:13;0.43;;;0.40;;
80782;SDS011;70172;-35.368;149.084;2023-05-18T07:20:40;1.38;;;0.30;;
80782;SDS011;70172;-35.368;149.084;2023-05-18T07:23:07;0.28;;;0.20;;
80782;SDS011;70172;-35.368;149.084;2023-05-18T07:25:34;0.60;;;0.30;;
80782;SDS011;70172;-35.368;149.084;2023-05-18T07:28:35;0.20;;;0.20;;
80782;SDS011;70172;-35.368;149.084;2023-05-18T07:31:46;2.92;;;0.40;;
80782;SDS011;70172;-35.368;149.084;2023-05-18T07:34:13;2.47;;;0.40;;
80782;SDS011;70172;-35.368;149.084;2023-05-18T07:36:40;0.35;;;0.35;;
80782;SDS011;70172;-35.368;149.084;2023-05-18T07:39:07;0.20;;;0.20;;
80782;SDS011;70172;-35.368;149.084;2023-05-18T07:41:41;0.30;;;0.30;;
80782;SDS011;70172;-35.368;149.084;2023-05-18T07:44:08;0.50;;;0.50;;
80782;SDS011;70172;-35.368;149.084;2023-05-18T07:47:15;0.95;;;0.40;;
80782;SDS011;70172;-35.368;149.084;2023-05-18T07:49:42;0.47;;;0.47;;
80782;SDS011;70172;-35.368;149.084;2023-05-18T07:52:09;0.65;;;0.65;;
80782;SDS011;70172;-35.368;149.084;2023-05-18T07:54:36;0.68;;;0.55;;
80782;SDS011;70172;-35.368;149.084;2023-05-18T07:57:03;2.08;;;0.60;;
80782;SDS011;70172;-35.368;149.084;2023-05-18T07:59:31;0.45;;;0.45;;
80782;SDS011;70172;-35.368;149.084;2023-05-18T08:01:58;0.40;;;0.40;;
80782;SDS011;70172;-35.368;149.084;2023-05-18T08:04:26;0.43;;;0.40;;
80782;SDS011;70172;-35.368;149.084;2023-05-18T08:06:53;0.60;;;0.50;;
80782;SDS011;70172;-35.368;149.084;2023-05-18T08:09:25;0.40;;;0.40;;
80782;SDS011;70172;-35.368;149.084;2023-05-18T08:11:52;0.55;;;0.55;;
80782;SDS011;70172;-35.368;149.084;2023-05-18T08:14:19;0.75;;;0.55;;
80782;SDS011;70172;-35.368;149.084;2023-05-18T08:16:46;2.88;;;0.60;;
80782;SDS011;70172;-35.368;149.084;2023-05-18T08:19:13;0.68;;;0.60;;
80782;SDS011;70172;-35.368;149.084;2023-05-18T08:22:19;2.15;;;0.50;;
80782;SDS011;70172;-35.368;149.084;2023-05-18T08:25:14;1.58;;;0.45;;
80782;SDS011;70172;-35.368;149.084;2023-05-18T08:28:21;4.78;;;1.27;;
80782;SDS011;70172;-35.368;149.084;2023-05-18T08:30:48;3.25;;;2.00;;
80782;SDS011;70172;-35.368;149.084;2023-05-18T08:33:15;3.25;;;1.85;;
80782;SDS011;70172;-35.368;149.084;2023-05-18T08:35:43;6.75;;;2.03;;
80782;SDS011;70172;-35.368;149.084;2023-05-18T08:38:10;2.70;;;2.10;;
80782;SDS011;70172;-35.368;149.084;2023-05-18T08:40:41;5.05;;;2.60;;
80782;SDS011;70172;-35.368;149.084;2023-05-18T08:43:15;7.82;;;2.33;;
80782;SDS011;70172;-35.368;149.084;2023-05-18T08:45:49;7.60;;;2.80;;
80782;SDS011;70172;-35.368;149.084;2023-05-18T08:48:18;10.80;;;3.20;;
80782;SDS011;70172;-35.368;149.084;2023-05-18T08:50:46;11.88;;;3.28;;
80782;SDS011;70172;-35.368;149.084;2023-05-18T08:53:14;8.20;;;3.35;;
80782;SDS011;70172;-35.368;149.084;2023-05-18T08:55:42;7.97;;;2.58;;
80782;SDS011;70172;-35.368;149.084;2023-05-18T08:58:11;6.50;;;2.47;;
80782;SDS011;70172;-35.368;149.084;2023-05-18T09:00:39;6.30;;;2.55;;
80782;SDS011;70172;-35.368;149.084;2023-05-18T09:03:06;6.40;;;2.05;;
80782;SDS011;70172;-35.368;149.084;2023-05-18T09:06:12;4.03;;;1.67;;
80782;SDS011;70172;-35.368;149.084;2023-05-18T09:09:19;3.55;;;1.52;;
80782;SDS011;70172;-35.368;149.084;2023-05-18T09:12:25;6.47;;;1.30;;
80782;SDS011;70172;-35.368;149.084;2023-05-18T09:15:32;3.03;;;1.42;;
80782;SDS011;70172;-35.368;149.084;2023-05-18T09:18:38;2.90;;;1.00;;
80782;SDS011;70172;-35.368;149.084;2023-05-18T09:21:05;3.83;;;1.60;;
80782;SDS011;70172;-35.368;149.084;2023-05-18T09:23:32;3.95;;;0.65;;
80782;SDS011;70172;-35.368;149.084;2023-05-18T09:25:59;1.48;;;0.98;;
80782;SDS011;70172;-35.368;149.084;2023-05-18T09:28:34;1.73;;;0.88;;
80782;SDS011;70172;-35.368;149.084;2023-05-18T09:31:05;1.58;;;0.80;;
80782;SDS011;70172;-35.368;149.084;2023-05-18T09:34:11;1.20;;;0.90;;
80782;SDS011;70172;-35.368;149.084;2023-05-18T09:37:17;2.15;;;1.10;;
80782;SDS011;70172;-35.368;149.084;2023-05-18T09:39:48;2.47;;;0.98;;
80782;SDS011;70172;-35.368;149.084;2023-05-18T09:42:36;1.27;;;0.70;;
80782;SDS011;70172;-35.368;149.084;2023-05-18T09:45:13;2.05;;;1.00;;
80782;SDS011;70172;-35.368;149.084;2023-05-18T09:47:41;1.70;;;1.00;;
80782;SDS011;70172;-35.368;149.084;2023-05-18T09:50:08;0.80;;;0.60;;
80782;SDS011;70172;-35.368;149.084;2023-05-18T09:52:42;1.38;;;0.85;;
80782;SDS011;70172;-35.368;149.084;2023-05-18T09:55:10;0.73;;;0.73;;
80782;SDS011;70172;-35.368;149.084;2023-05-18T09:57:38;1.85;;;1.70;;
80782;SDS011;70172;-35.368;149.084;2023-05-18T10:00:05;1.50;;;0.95;;
80782;SDS011;70172;-35.368;149.084;2023-05-18T10:02:41;0.73;;;0.73;;
80782;SDS011;70172;-35.368;149.084;2023-05-18T10:05:25;0.93;;;0.80;;
80782;SDS011;70172;-35.368;149.084;2023-05-18T10:08:32;3.17;;;1.20;;
80782;SDS011;70172;-35.368;149.084;2023-05-18T10:10:59;2.60;;;0.80;;
80782;SDS011;70172;-35.368;149.084;2023-05-18T10:13:27;1.20;;;0.65;;
80782;SDS011;70172;-35.368;149.084;2023-05-18T10:16:02;2.15;;;1.05;;
80782;SDS011;70172;-35.368;149.084;2023-05-18T10:18:36;1.23;;;0.68;;
80782;SDS011;70172;-35.368;149.084;2023-05-18T10:21:04;1.05;;;0.60;;
80782;SDS011;70172;-35.368;149.084;2023-05-18T10:23:34;3.92;;;1.10;;
80782;SDS011;70172;-35.368;149.084;2023-05-18T10:26:40;0.55;;;0.55;;
80782;SDS011;70172;-35.368;149.084;2023-05-18T10:29:47;2.10;;;1.02;;
80782;SDS011;70172;-35.368;149.084;2023-05-18T10:32:16;2.00;;;0.60;;
80782;SDS011;70172;-35.368;149.084;2023-05-18T10:34:45;2.15;;;0.75;;
80782;SDS011;70172;-35.368;149.084;2023-05-18T10:37:12;2.30;;;0.70;;
80782;SDS011;70172;-35.368;149.084;2023-05-18T10:39:40;2.65;;;0.90;;
80782;SDS011;70172;-35.368;149.084;2023-05-18T10:44:36;1.25;;;0.80;;
80782;SDS011;70172;-35.368;149.084;2023-05-18T10:47:07;1.05;;;0.95;;
80782;SDS011;70172;-35.368;149.084;2023-05-18T10:49:35;2.22;;;1.15;;
80782;SDS011;70172;-35.368;149.084;2023-05-18T10:52:03;1.95;;;0.90;;
80782;SDS011;70172;-35.368;149.084;2023-05-18T10:54:30;0.80;;;0.80;;
80782;SDS011;70172;-35.368;149.084;2023-05-18T10:56:57;1.77;;;0.80;;
80782;SDS011;70172;-35.368;149.084;2023-05-18T10:59:27;1.52;;;0.85;;
80782;SDS011;70172;-35.368;149.084;2023-05-18T11:01:54;1.35;;;0.70;;
80782;SDS011;70172;-35.368;149.084;2023-05-18T11:04:25;2.33;;;1.00;;
80782;SDS011;70172;-35.368;149.084;2023-05-18T11:07:28;1.17;;;0.98;;
80782;SDS011;70172;-35.368;149.084;2023-05-18T11:09:59;1.75;;;1.00;;
80782;SDS011;70172;-35.368;149.084;2023-05-18T11:12:27;0.73;;;0.73;;
80782;SDS011;70172;-35.368;149.084;2023-05-18T11:15:00;1.38;;;0.85;;
80782;SDS011;70172;-35.368;149.084;2023-05-18T11:17:30;1.40;;;0.90;;
80782;SDS011;70172;-35.368;149.084;2023-05-18T11:22:46;1.15;;;1.13;;
80782;SDS011;70172;-35.368;149.084;2023-05-18T11:28:14;1.98;;;1.10;;
80782;SDS011;70172;-35.368;149.084;2023-05-18T11:33:28;0.85;;;0.75;;
80782;SDS011;70172;-35.368;149.084;2023-05-18T11:36:34;1.75;;;0.55;;
80782;SDS011;70172;-35.368;149.084;2023-05-18T11:39:10;1.20;;;0.80;;
80782;SDS011;70172;-35.368;149.084;2023-05-18T11:42:17;1.35;;;0.60;;
80782;SDS011;70172;-35.368;149.084;2023-05-18T11:44:51;0.85;;;0.50;;
80782;SDS011;70172;-35.368;149.084;2023-05-18T11:47:22;2.60;;;0.60;;
80782;SDS011;70172;-35.368;149.084;2023-05-18T11:49:55;0.65;;;0.65;;
80782;SDS011;70172;-35.368;149.084;2023-05-18T11:52:23;0.85;;;0.50;;
80782;SDS011;70172;-35.368;149.084;2023-05-18T11:55:36;0.57;;;0.57;;
80782;SDS011;70172;-35.368;149.084;2023-05-18T11:58:42;1.35;;;0.60;;
80782;SDS011;70172;-35.368;149.084;2023-05-18T12:01:48;0.50;;;0.40;;
80782;SDS011;70172;-35.368;149.084;2023-05-18T12:04:15;1.10;;;0.45;;
80782;SDS011;70172;-35.368;149.084;2023-05-18T12:06:42;1.38;;;0.40;;
80782;SDS011;70172;-35.368;149.084;2023-05-18T12:09:09;1.27;;;0.95;;
80782;SDS011;70172;-35.368;149.084;2023-05-18T12:11:36;2.38;;;0.50;;
80782;SDS011;70172;-35.368;149.084;2023-05-18T12:14:04;0.90;;;0.50;;
80782;SDS011;70172;-35.368;149.084;2023-05-18T12:17:10;2.15;;;0.50;;
80782;SDS011;70172;-35.368;149.084;2023-05-18T12:20:20;4.38;;;0.75;;
80782;SDS011;70172;-35.368;149.084;2023-05-18T12:22:52;0.40;;;0.40;;
80782;SDS011;70172;-35.368;149.084;2023-05-18T12:25:19;1.60;;;0.50;;
80782;SDS011;70172;-35.368;149.084;2023-05-18T12:27:48;2.95;;;0.80;;
80782;SDS011;70172;-35.368;149.084;2023-05-18T12:30:18;2.28;;;0.50;;
80782;SDS011;70172;-35.368;149.084;2023-05-18T12:35:12;1.75;;;0.40;;
80782;SDS011;70172;-35.368;149.084;2023-05-18T12:37:45;0.85;;;0.43;;
80782;SDS011;70172;-35.368;149.084;2023-05-18T12:40:13;0.43;;;0.43;;
80782;SDS011;70172;-35.368;149.084;2023-05-18T12:42:53;0.43;;;0.30;;
80782;SDS011;70172;-35.368;149.084;2023-05-18T12:45:24;0.30;;;0.30;;
80782;SDS011;70172;-35.368;149.084;2023-05-18T12:47:52;0.70;;;0.30;;
80782;SDS011;70172;-35.368;149.084;2023-05-18T12:50:19;4.03;;;0.93;;
80782;SDS011;70172;-35.368;149.084;2023-05-18T12:52:47;2.40;;;0.30;;
80782;SDS011;70172;-35.368;149.084;2023-05-18T12:55:16;1.60;;;0.40;;
80782;SDS011;70172;-35.368;149.084;2023-05-18T13:00:32;1.40;;;0.43;;
80782;SDS011;70172;-35.368;149.084;2023-05-18T13:03:08;3.03;;;0.70;;
80782;SDS011;70172;-35.368;149.084;2023-05-18T13:05:36;7.00;;;0.60;;
80782;SDS011;70172;-35.368;149.084;2023-05-18T13:08:03;4.97;;;0.50;;
80782;SDS011;70172;-35.368;149.084;2023-05-18T13:10:31;1.27;;;0.55;;
80782;SDS011;70172;-35.368;149.084;2023-05-18T13:12:58;2.92;;;0.52;;
80782;SDS011;70172;-35.368;149.084;2023-05-18T13:15:32;1.50;;;0.60;;
80782;SDS011;70172;-35.368;149.084;2023-05-18T13:23:03;1.60;;;0.93;;
80782;SDS011;70172;-35.368;149.084;2023-05-18T13:25:30;1.80;;;0.80;;
80782;SDS011;70172;-35.368;149.084;2023-05-18T13:27:57;2.90;;;1.30;;
80782;SDS011;70172;-35.368;149.084;2023-05-18T13:30:24;2.45;;;0.70;;
80782;SDS011;70172;-35.368;149.084;2023-05-18T13:32:51;2.08;;;0.70;;
80782;SDS011;70172;-35.368;149.084;2023-05-18T13:35:24;2.90;;;0.80;;
80782;SDS011;70172;-35.368;149.084;2023-05-18T13:37:51;2.35;;;0.98;;
80782;SDS011;70172;-35.368;149.084;2023-05-18T13:40:19;3.55;;;1.60;;
80782;SDS011;70172;-35.368;149.084;2023-05-18T13:42:46;2.88;;;1.67;;
80782;SDS011;70172;-35.368;149.084;2023-05-18T13:45:13;4.20;;;2.08;;
80782;SDS011;70172;-35.368;149.084;2023-05-18T13:47:41;3.85;;;2.10;;
80782;SDS011;70172;-35.368;149.084;2023-05-18T13:50:10;7.13;;;2.10;;
80782;SDS011;70172;-35.368;149.084;2023-05-18T13:52:37;4.15;;;2.20;;
80782;SDS011;70172;-35.368;149.084;2023-05-18T13:55:04;4.78;;;2.70;;
80782;SDS011;70172;-35.368;149.084;2023-05-18T13:57:32;5.30;;;2.88;;
80782;SDS011;70172;-35.368;149.084;2023-05-18T13:59:59;4.97;;;3.10;;
80782;SDS011;70172;-35.368;149.084;2023-05-18T14:02:38;4.32;;;2.42;;
80782;SDS011;70172;-35.368;149.084;2023-05-18T14:05:05;4.72;;;2.05;;
80782;SDS011;70172;-35.368;149.084;2023-05-18T14:07:36;4.13;;;2.03;;
80782;SDS011;70172;-35.368;149.084;2023-05-18T14:10:03;3.20;;;1.80;;
80782;SDS011;70172;-35.368;149.084;2023-05-18T14:12:31;2.05;;;1.70;;
80782;SDS011;70172;-35.368;149.084;2023-05-18T14:14:58;3.78;;;1.85;;
80782;SDS011;70172;-35.368;149.084;2023-05-18T14:17:25;3.58;;;1.63;;
80782;SDS011;70172;-35.368;149.084;2023-05-18T14:19:54;3.05;;;1.80;;
80782;SDS011;70172;-35.368;149.084;2023-05-18T14:22:21;3.90;;;1.65;;
80782;SDS011;70172;-35.368;149.084;2023-05-18T14:24:50;2.20;;;1.63;;
80782;SDS011;70172;-35.368;149.084;2023-05-18T14:27:17;3.25;;;1.58;;
80782;SDS011;70172;-35.368;149.084;2023-05-18T14:29:48;2.70;;;1.52;;
80782;SDS011;70172;-35.368;149.084;2023-05-18T14:32:15;3.00;;;1.35;;
80782;SDS011;70172;-35.368;149.084;2023-05-18T14:34:45;2.72;;;1.70;;
80782;SDS011;70172;-35.368;149.084;2023-05-18T14:37:12;3.30;;;2.00;;
80782;SDS011;70172;-35.368;149.084;2023-05-18T14:39:39;2.35;;;1.25;;
80782;SDS011;70172;-35.368;149.084;2023-05-18T14:42:06;3.45;;;1.75;;
80782;SDS011;70172;-35.368;149.084;2023-05-18T14:44:33;3.13;;;1.45;;
80782;SDS011;70172;-35.368;149.084;2023-05-18T14:47:00;2.50;;;1.38;;
80782;SDS011;70172;-35.368;149.084;2023-05-18T14:49:27;2.40;;;1.40;;
80782;SDS011;70172;-35.368;149.084;2023-05-18T14:51:54;2.80;;;1.42;;
80782;SDS011;70172;-35.368;149.084;2023-05-18T14:54:21;2.40;;;1.23;;
80782;SDS011;70172;-35.368;149.084;2023-05-18T14:56:48;3.25;;;1.83;;
80782;SDS011;70172;-35.368;149.084;2023-05-18T14:59:15;4.28;;;1.13;;
80782;SDS011;70172;-35.368;149.084;2023-05-18T15:01:42;2.50;;;1.38;;
80782;SDS011;70172;-35.368;149.084;2023-05-18T15:04:09;1.67;;;0.88;;
80782;SDS011;70172;-35.368;149.084;2023-05-18T15:06:36;1.00;;;0.90;;
80782;SDS011;70172;-35.368;149.084;2023-05-18T15:09:03;0.88;;;0.70;;
80782;SDS011;70172;-35.368;149.084;2023-05-18T15:11:30;0.77;;;0.65;;